< Typhoon 199224 1992 Season Typhoon 199226 >
Typhoon 199225 (BRIAN)
General InformationTrack Information on Google MapsDetailed Wind InformationList of All Images || Disaster Info.ResourceGoogle EarthGE AnimationAtom FeedGeoJSON
Detalied Best Track (Time Zone = UTC)
Year Month Day Hour Lat. Long. Pressure (hPa) Wind (kt) Class Image Chart
1992 10 17 00 11.0 160.0 1004 0 2 Image Chart
1992 10 17 06 10.3 158.5 1004 0 2 Image Chart
1992 10 17 12 10.1 156.9 1004 0 2 Image Chart
1992 10 17 18 10.5 155.4 1000 35 3 Image Chart
1992 10 18 00 10.8 154.3 1000 35 3 Image Chart
1992 10 18 06 11.1 153.6 996 40 3 Image Chart
1992 10 18 12 11.3 153.0 994 45 3 Image Chart
1992 10 18 18 11.5 152.1 994 45 3 Image Chart
1992 10 19 00 11.7 151.1 992 45 3 Image Chart
1992 10 19 06 11.9 150.3 990 45 3 Image Chart
1992 10 19 12 12.0 149.4 985 50 4 Image Chart
1992 10 19 18 12.0 148.6 985 50 4 Image Chart
1992 10 20 00 12.0 147.8 985 55 4 Image Chart
1992 10 20 06 12.0 146.8 985 55 4 Image Chart
1992 10 20 12 12.1 146.1 980 60 4 Image Chart
1992 10 20 18 12.3 145.8 980 60 4 Image Chart
1992 10 21 00 12.9 145.3 980 55 4 Image Chart
1992 10 21 06 13.8 144.4 980 55 4 Image Chart
1992 10 21 12 14.5 143.3 980 55 4 Image Chart
1992 10 21 18 15.3 142.9 975 60 4 Image Chart
1992 10 22 00 16.2 142.2 970 65 5 Image Chart
1992 10 22 06 17.2 141.8 965 70 5 Image Chart
1992 10 22 12 18.0 141.1 960 75 5 Image Chart
1992 10 22 18 19.0 140.3 955 75 5 Image Chart
1992 10 23 00 20.1 139.8 950 80 5 Image Chart
1992 10 23 06 21.2 139.7 950 80 5 Image Chart
1992 10 23 12 22.3 139.4 950 80 5 Image Chart
1992 10 23 18 23.2 139.0 960 75 5 Image Chart
1992 10 24 00 24.4 138.6 970 65 5 Image Chart
1992 10 24 03 25.3 138.5 975 65 5 Image Chart
1992 10 24 06 26.2 138.4 975 65 5 Image Chart
1992 10 24 09 27.0 138.7 980 60 4 Image Chart
1992 10 24 12 27.9 139.3 980 60 4 Image Chart
1992 10 24 15 28.8 140.5 985 55 4 Image Chart
1992 10 24 18 29.8 141.8 990 50 4 Image Chart
1992 10 24 21 30.9 143.5 992 45 3 Image Chart
1992 10 25 00 32.1 145.2 994 40 3 Image Chart
1992 10 25 06 34.0 149.5 998 0 6 Image Chart
Japan Meteorological Agency Best Track Data | Correction Date : 1992-12-25
< Typhoon 199224 1992 Season Typhoon 199226 >

Help